createdAt,value
2022-12-01T00:02:39.711Z,101097.66
2022-12-01T00:05:55.046Z,101099.94
2022-12-01T00:09:04.223Z,101089.75
2022-12-01T00:12:26.055Z,101102.75
2022-12-01T00:15:36.916Z,101105.47
2022-12-01T00:18:45.016Z,101113.38
2022-12-01T00:21:53.852Z,101113.22
2022-12-01T00:25:09.041Z,101109.50
2022-12-01T00:28:17.039Z,101114.41
2022-12-01T00:31:33.050Z,101115.75
2022-12-01T00:34:42.138Z,101120.91
2022-12-01T00:37:57.156Z,101115.00
2022-12-01T00:41:12.109Z,101117.66
2022-12-01T00:44:14.096Z,101113.09
2022-12-01T00:47:30.095Z,101123.91
2022-12-01T00:50:32.275Z,101125.00
2022-12-01T00:53:47.053Z,101125.88
2022-12-01T00:56:55.032Z,101129.41
2022-12-01T01:00:12.042Z,101131.25
2022-12-01T01:03:20.795Z,101127.63
2022-12-01T01:06:29.042Z,101126.88
2022-12-01T01:09:44.029Z,101126.91
2022-12-01T01:13:06.038Z,101126.75
2022-12-01T01:16:19.858Z,101118.69
2022-12-01T01:19:36.028Z,101119.69
2022-12-01T01:22:44.605Z,101114.44
2022-12-01T01:25:53.017Z,101123.62
2022-12-01T01:29:11.029Z,101118.50
2022-12-01T01:32:12.953Z,101124.00
2022-12-01T01:35:28.016Z,101120.75
2022-12-01T01:38:44.060Z,101123.03
2022-12-01T01:41:46.067Z,101115.31
2022-12-01T01:45:04.016Z,101121.63
2022-12-01T01:48:06.042Z,101110.28
2022-12-01T01:51:24.047Z,101116.00
2022-12-01T01:54:31.758Z,101118.06
2022-12-01T01:57:47.035Z,101112.97
2022-12-01T02:00:48.986Z,101110.97
2022-12-01T02:04:05.042Z,101104.87
2022-12-01T02:07:23.052Z,101102.03
2022-12-01T02:10:58.018Z,101098.97
2022-12-01T02:14:23.025Z,101100.63
2022-12-01T02:17:42.357Z,101102.09
2022-12-01T02:21:27.029Z,101102.16
2022-12-01T02:24:59.093Z,101103.38
2022-12-01T02:28:16.929Z,101088.16
2022-12-01T02:31:30.130Z,101096.31
2022-12-01T02:35:06.029Z,101094.84
2022-12-01T02:38:38.024Z,101099.13
2022-12-01T02:41:59.029Z,101106.28
2022-12-01T02:45:04.876Z,101097.31
2022-12-01T02:48:34.010Z,101092.50
2022-12-01T02:51:39.271Z,101096.53
2022-12-01T02:54:55.002Z,101083.75
2022-12-01T02:57:56.892Z,101089.88
2022-12-01T03:01:21.060Z,101093.31
2022-12-01T03:04:49.296Z,101100.03
2022-12-01T03:08:28.018Z,101098.84
2022-12-01T03:11:49.066Z,101098.66
2022-12-01T03:15:15.991Z,101107.28
2022-12-01T03:18:40.032Z,101096.75
2022-12-01T03:22:13.646Z,101089.28
2022-12-01T03:25:31.027Z,101093.59
2022-12-01T03:28:51.033Z,101092.19
2022-12-01T03:32:07.062Z,101093.22
2022-12-01T03:35:21.874Z,101086.75
2022-12-01T03:38:39.022Z,101081.09
2022-12-01T03:42:08.016Z,101070.13
2022-12-01T03:45:26.998Z,101062.41
2022-12-01T03:48:43.015Z,101079.38
2022-12-01T03:52:26.013Z,101079.41
2022-12-01T03:55:40.880Z,101071.03
2022-12-01T03:58:51.996Z,101075.50
2022-12-01T04:02:07.067Z,101079.12
2022-12-01T04:05:25.281Z,101071.75
2022-12-01T04:08:41.007Z,101071.94
2022-12-01T04:12:02.997Z,101081.28
2022-12-01T04:15:10.953Z,101082.94
2022-12-01T04:18:26.987Z,101080.94
2022-12-01T04:21:36.033Z,101069.59
2022-12-01T04:24:51.011Z,101073.25
2022-12-01T04:27:52.887Z,101065.97
2022-12-01T04:31:08.043Z,101068.38
2022-12-01T04:34:10.367Z,101069.19
2022-12-01T04:37:27.003Z,101069.59
2022-12-01T04:40:28.945Z,101077.69
2022-12-01T04:43:44.990Z,101070.00
2022-12-01T04:46:53.495Z,101085.81
2022-12-01T04:50:15.013Z,101088.94
2022-12-01T04:53:31.007Z,101106.41
2022-12-01T04:56:39.770Z,101088.41
2022-12-01T04:59:55.005Z,101109.50
2022-12-01T05:03:14.873Z,101104.84
2022-12-01T05:06:26.773Z,101101.63
2022-12-01T05:09:43.011Z,101093.09
2022-12-01T05:12:51.362Z,101090.69
2022-12-01T05:16:17.042Z,101086.62
2022-12-01T05:19:19.152Z,101103.06
2022-12-01T05:23:03.791Z,101099.62
2022-12-01T05:26:04.297Z,101097.19
2022-12-01T05:29:21.158Z,101095.38
2022-12-01T05:32:36.004Z,101089.06
2022-12-01T05:35:44.995Z,101094.94
2022-12-01T05:39:01.011Z,101092.09
2022-12-01T05:42:09.997Z,101092.50
2022-12-01T05:45:25.013Z,101092.50
2022-12-01T05:48:34.023Z,101101.03
2022-12-01T05:51:50.005Z,101094.56
2022-12-01T05:55:04.984Z,101082.34
2022-12-01T05:58:14.004Z,101100.81
2022-12-01T06:01:22.584Z,101105.28
2022-12-01T06:04:36.976Z,101107.91
2022-12-01T06:07:45.700Z,101116.25
2022-12-01T06:10:53.985Z,101113.41
2022-12-01T06:14:09.004Z,101118.69
2022-12-01T06:17:17.978Z,101118.06
2022-12-01T06:20:32.998Z,101117.84
2022-12-01T06:23:35.023Z,101122.91
2022-12-01T06:26:49.988Z,101127.59
2022-12-01T06:29:58.655Z,101125.56
2022-12-01T06:33:06.984Z,101127.41
2022-12-01T06:36:21.985Z,101118.87
2022-12-01T06:39:24.356Z,101121.53
2022-12-01T06:42:39.007Z,101123.75
2022-12-01T06:45:47.684Z,101114.84
2022-12-01T06:48:56.036Z,101116.84
2022-12-01T06:52:05.428Z,101115.22
2022-12-01T06:55:21.001Z,101120.12
2022-12-01T06:58:29.986Z,101118.91
2022-12-01T07:01:39.320Z,101111.78
2022-12-01T07:04:48.008Z,101096.56
2022-12-01T07:08:04.014Z,101109.75
2022-12-01T07:11:19.027Z,101116.44
2022-12-01T07:14:33.973Z,101119.66
2022-12-01T07:17:48.984Z,101122.72
2022-12-01T07:20:56.991Z,101130.19
2022-12-01T07:24:05.905Z,101127.75
2022-12-01T07:27:20.994Z,101130.19
2022-12-01T07:30:30.010Z,101132.00
2022-12-01T07:33:38.981Z,101134.41
2022-12-01T07:36:47.665Z,101131.16
2022-12-01T07:40:03.160Z,101124.03
2022-12-01T07:43:13.072Z,101133.34
2022-12-01T07:46:31.134Z,101126.62
2022-12-01T07:49:39.541Z,101131.47
2022-12-01T07:52:47.976Z,101128.81
2022-12-01T07:56:07.075Z,101125.72
2022-12-01T07:59:17.781Z,101128.72
2022-12-01T08:02:26.074Z,101129.06
2022-12-01T08:05:34.661Z,101135.66
2022-12-01T08:08:44.986Z,101137.81
2022-12-01T08:12:00.249Z,101134.09
2022-12-01T08:15:09.002Z,101139.75
2022-12-01T08:18:23.989Z,101136.06
2022-12-01T08:21:26.201Z,101137.56
2022-12-01T08:24:40.980Z,101133.78
2022-12-01T08:27:49.661Z,101132.16
2022-12-01T08:30:58.058Z,101138.59
2022-12-01T08:34:07.366Z,101132.50
2022-12-01T08:37:15.980Z,101141.19
2022-12-01T08:40:24.973Z,101148.47
2022-12-01T08:43:57.329Z,101133.62
2022-12-01T08:47:17.290Z,101145.44
2022-12-01T08:50:28.626Z,101151.16
2022-12-01T08:53:42.584Z,101148.53
2022-12-01T08:56:59.976Z,101137.31
2022-12-01T09:00:09.154Z,101143.25
2022-12-01T09:03:18.086Z,101136.59
2022-12-01T09:06:26.608Z,101136.41
2022-12-01T09:09:41.993Z,101135.34
2022-12-01T09:13:03.955Z,101136.28
2022-12-01T09:16:19.010Z,101135.06
2022-12-01T09:19:33.977Z,101133.72
2022-12-01T09:22:42.570Z,101134.31
2022-12-01T09:25:57.959Z,101131.06
2022-12-01T09:29:16.974Z,101124.06
2022-12-01T09:32:25.724Z,101124.75
2022-12-01T09:35:33.987Z,101125.78
2022-12-01T09:38:42.658Z,101117.59
2022-12-01T09:41:53.981Z,101120.00
2022-12-01T09:45:10.963Z,101115.75
2022-12-01T09:48:36.982Z,101109.06
2022-12-01T09:51:45.965Z,101112.84
2022-12-01T09:54:54.977Z,101116.06
2022-12-01T09:58:11.958Z,101084.66
2022-12-01T10:01:27.382Z,101109.78
2022-12-01T10:04:50.952Z,101101.41
2022-12-01T10:08:13.969Z,101101.13
2022-12-01T10:11:30.350Z,101087.25
2022-12-01T10:14:44.962Z,101096.44
2022-12-01T10:18:21.000Z,101102.63
2022-12-01T10:21:29.580Z,101091.25
2022-12-01T10:25:02.960Z,101084.34
2022-12-01T10:28:30.052Z,101069.00
2022-12-01T10:32:00.090Z,101081.81
2022-12-01T10:35:31.023Z,101078.91
2022-12-01T10:38:36.703Z,101068.38
2022-12-01T10:41:53.991Z,101068.88
2022-12-01T10:45:07.290Z,101077.78
2022-12-01T10:48:29.989Z,101068.81
2022-12-01T10:51:45.572Z,101060.03
2022-12-01T10:54:59.958Z,101021.94
2022-12-01T10:58:17.096Z,101066.97
2022-12-01T11:01:33.116Z,101062.59
2022-12-01T11:04:55.705Z,101059.38
2022-12-01T11:08:11.999Z,101054.44
2022-12-01T11:11:36.960Z,101037.81
2022-12-01T11:14:55.420Z,101038.62
2022-12-01T11:18:13.968Z,101034.50
2022-12-01T11:21:34.961Z,101030.56
2022-12-01T11:25:02.018Z,101030.72
2022-12-01T11:28:20.345Z,101024.31
2022-12-01T11:31:46.016Z,101026.84
2022-12-01T11:35:02.969Z,101024.19
2022-12-01T11:38:29.711Z,101023.44
2022-12-01T11:41:40.864Z,101027.47
2022-12-01T11:45:01.193Z,101016.31
2022-12-01T11:48:12.620Z,101018.50
2022-12-01T11:51:23.961Z,101018.00
2022-12-01T11:54:38.967Z,101021.53
2022-12-01T11:57:52.977Z,101023.22
2022-12-01T12:01:01.988Z,101012.31
2022-12-01T12:04:09.958Z,101009.47
2022-12-01T12:07:42.992Z,101015.53
2022-12-01T12:11:17.442Z,101012.69
2022-12-01T12:14:38.990Z,101012.59
2022-12-01T12:18:07.389Z,101016.75
2022-12-01T12:21:36.943Z,101010.13
2022-12-01T12:24:53.970Z,101005.72
2022-12-01T12:28:27.172Z,101008.00
2022-12-01T12:32:14.975Z,101008.81
2022-12-01T12:35:44.952Z,101006.22
2022-12-01T12:39:15.068Z,101007.84
2022-12-01T12:42:56.970Z,101009.31
2022-12-01T12:46:41.057Z,101009.78
2022-12-01T12:50:00.975Z,101011.59
2022-12-01T12:53:27.956Z,101004.00
2022-12-01T12:56:37.134Z,101010.63
2022-12-01T13:00:35.341Z,101009.03
2022-12-01T13:04:32.717Z,101011.72
2022-12-01T13:07:48.659Z,101005.38
2022-12-01T13:11:10.954Z,101005.63
2022-12-01T13:14:49.972Z,100996.56
2022-12-01T13:17:56.692Z,100994.22
2022-12-01T13:21:12.970Z,100997.44
2022-12-01T13:24:24.624Z,101010.69
2022-12-01T13:27:36.983Z,101010.37
2022-12-01T13:31:07.990Z,101002.69
2022-12-01T13:34:29.289Z,101005.84
2022-12-01T13:37:40.950Z,101011.13
2022-12-01T13:40:55.962Z,101008.22
2022-12-01T13:44:18.564Z,101010.31
2022-12-01T13:47:44.951Z,101008.94
2022-12-01T13:50:58.289Z,101006.44
2022-12-01T13:54:37.958Z,101004.00
2022-12-01T13:58:10.708Z,100996.09
2022-12-01T14:01:29.112Z,101007.09
2022-12-01T14:04:43.939Z,101000.63
2022-12-01T14:07:46.022Z,100986.13
2022-12-01T14:11:10.952Z,101001.59
2022-12-01T14:14:29.163Z,101000.94
2022-12-01T14:17:43.454Z,100996.59
2022-12-01T14:21:02.031Z,100992.09
2022-12-01T14:24:06.520Z,100998.22
2022-12-01T14:27:38.953Z,100994.19
2022-12-01T14:30:56.986Z,100990.63
2022-12-01T14:34:15.748Z,100993.44
2022-12-01T14:37:39.927Z,100998.09
2022-12-01T14:40:55.054Z,100991.56
2022-12-01T14:44:11.988Z,100996.47
2022-12-01T14:47:29.412Z,100989.09
2022-12-01T14:50:47.070Z,100991.34
2022-12-01T14:54:03.937Z,100996.47
2022-12-01T14:57:23.945Z,100995.00
2022-12-01T15:00:44.001Z,100995.63
2022-12-01T15:03:57.376Z,100999.41
2022-12-01T15:07:11.953Z,101009.94
2022-12-01T15:10:38.939Z,101004.19
2022-12-01T15:13:56.288Z,101011.22
2022-12-01T15:17:12.936Z,101001.28
2022-12-01T15:20:47.891Z,101000.59
2022-12-01T15:24:05.959Z,101009.53
2022-12-01T15:27:30.946Z,101009.19
2022-12-01T15:30:33.135Z,100993.59
2022-12-01T15:33:54.948Z,101001.56
2022-12-01T15:37:07.210Z,101006.53
2022-12-01T15:41:06.165Z,101001.09
2022-12-01T15:44:05.938Z,101002.94
2022-12-01T15:47:53.588Z,101000.28
2022-12-01T15:51:34.141Z,100995.09
2022-12-01T15:54:54.002Z,101004.00
2022-12-01T15:57:56.971Z,101006.87
2022-12-01T16:01:18.342Z,100999.84
2022-12-01T16:04:29.991Z,101004.81
2022-12-01T16:11:11.796Z,101004.31
2022-12-01T16:14:33.938Z,101013.53
2022-12-01T16:17:52.281Z,101008.47
2022-12-01T16:21:05.515Z,101011.38
2022-12-01T16:24:20.939Z,101014.22
2022-12-01T16:27:37.932Z,101009.97
2022-12-01T16:30:46.849Z,101010.66
2022-12-01T16:33:55.927Z,101008.00
2022-12-01T16:37:11.322Z,101015.16
2022-12-01T16:40:29.740Z,101011.56
2022-12-01T16:43:31.992Z,100999.22
2022-12-01T16:46:49.980Z,101009.59
2022-12-01T16:49:58.972Z,101007.63
2022-12-01T16:53:07.925Z,101009.13
2022-12-01T16:56:23.377Z,101000.81
2022-12-01T16:59:42.322Z,101007.38
2022-12-01T17:02:51.330Z,101007.81
2022-12-01T17:06:08.348Z,101004.97
2022-12-01T17:09:17.113Z,101008.75
2022-12-01T17:12:39.440Z,101016.13
2022-12-01T17:15:49.414Z,101002.59
2022-12-01T17:19:00.172Z,101015.97
2022-12-01T17:22:09.342Z,101011.59
2022-12-01T17:25:18.078Z,101012.16
2022-12-01T17:28:26.997Z,101018.72
2022-12-01T17:31:42.324Z,101019.97
2022-12-01T17:34:50.852Z,101021.47
2022-12-01T17:38:07.037Z,101021.47
2022-12-01T17:41:24.972Z,101024.56
2022-12-01T17:44:33.747Z,101026.06
2022-12-01T17:47:41.964Z,101016.78
2022-12-01T17:50:50.645Z,101025.31
2022-12-01T17:54:00.943Z,101020.69
2022-12-01T17:57:09.681Z,101023.78
2022-12-01T18:00:21.342Z,101023.56
2022-12-01T18:03:29.811Z,101026.44
2022-12-01T18:06:47.977Z,101029.31
2022-12-01T18:10:07.923Z,101034.47
2022-12-01T18:13:10.308Z,101034.72
2022-12-01T18:16:25.287Z,101031.66
2022-12-01T18:19:34.234Z,101031.53
2022-12-01T18:22:42.723Z,101031.59
2022-12-01T18:25:58.005Z,101040.69
2022-12-01T18:29:13.301Z,101032.34
2022-12-01T18:32:23.071Z,101033.00
2022-12-01T18:35:38.012Z,101036.81
2022-12-01T18:38:46.941Z,101036.25
2022-12-01T18:41:56.322Z,101032.00
2022-12-01T18:45:12.186Z,101033.00
2022-12-01T18:48:17.807Z,101035.06
2022-12-01T18:51:34.212Z,101036.69
2022-12-01T18:54:49.714Z,101037.94
2022-12-01T18:57:59.344Z,101044.91
2022-12-01T19:01:25.362Z,101046.56
2022-12-01T19:04:40.866Z,101039.19
2022-12-01T19:07:49.568Z,101044.50
2022-12-01T19:11:10.372Z,101040.78
2022-12-01T19:14:35.343Z,101045.31
2022-12-01T19:17:50.485Z,101033.59
2022-12-01T19:20:59.426Z,101046.75
2022-12-01T19:24:14.397Z,101050.59
2022-12-01T19:27:22.972Z,101047.97
2022-12-01T19:30:47.919Z,101048.16
2022-12-01T19:33:52.510Z,101041.91
2022-12-01T19:37:07.935Z,101031.22
2022-12-01T19:40:16.659Z,101048.47
2022-12-01T19:43:25.358Z,101046.41
2022-12-01T19:46:35.759Z,101046.97
2022-12-01T19:49:51.493Z,101046.97
2022-12-01T19:52:54.017Z,101049.47
2022-12-01T19:56:10.907Z,101042.41
2022-12-01T19:59:20.395Z,101051.25
2022-12-01T20:02:29.452Z,101047.56
2022-12-01T20:05:39.349Z,101051.66
2022-12-01T20:08:48.587Z,101052.09
2022-12-01T20:12:03.938Z,101057.97
2022-12-01T20:15:25.952Z,101059.22
2022-12-01T20:18:35.596Z,101054.37
2022-12-01T20:21:51.315Z,101059.88
2022-12-01T20:25:01.481Z,101053.41
2022-12-01T20:28:10.320Z,101059.94
2022-12-01T20:31:25.567Z,101058.97
2022-12-01T20:34:39.860Z,101051.09
2022-12-01T20:37:55.514Z,101051.75
2022-12-01T20:41:06.101Z,101064.97
2022-12-01T20:44:16.388Z,101067.87
2022-12-01T20:47:31.328Z,101065.88
2022-12-01T20:50:43.078Z,101075.62
2022-12-01T20:54:26.196Z,101073.84
2022-12-01T20:57:20.801Z,101072.88
2022-12-01T21:00:37.254Z,101075.78
2022-12-01T21:03:47.520Z,101079.06
2022-12-01T21:06:55.912Z,101081.72
2022-12-01T21:10:16.986Z,101076.25
2022-12-01T21:13:32.915Z,101084.78
2022-12-01T21:16:55.315Z,101065.75
2022-12-01T21:20:28.909Z,101081.53
2022-12-01T21:23:30.872Z,101090.50
2022-12-01T21:26:49.162Z,101089.28
2022-12-01T21:29:51.191Z,101096.62
2022-12-01T21:33:25.971Z,101089.72
2022-12-01T21:36:41.919Z,101098.25
2022-12-01T21:39:50.071Z,101094.44
2022-12-01T21:43:24.927Z,101086.50
2022-12-01T21:46:34.540Z,101093.00
2022-12-01T21:49:45.939Z,101082.06
2022-12-01T21:53:00.961Z,101088.16
2022-12-01T21:56:29.734Z,101096.50
2022-12-01T21:59:44.891Z,101093.88
2022-12-01T22:03:06.990Z,101098.56
2022-12-01T22:06:31.980Z,101103.44
2022-12-01T22:09:46.931Z,101099.31
2022-12-01T22:13:07.447Z,101108.47
2022-12-01T22:16:31.932Z,101097.09
2022-12-01T22:19:59.908Z,101107.06
2022-12-01T22:23:13.038Z,101102.00
2022-12-01T22:26:26.907Z,101100.12
2022-12-01T22:29:43.316Z,101087.09
2022-12-01T22:33:06.911Z,101093.75
2022-12-01T22:36:27.643Z,101089.88
2022-12-01T22:39:42.879Z,101079.72
2022-12-01T22:42:50.911Z,101080.47
2022-12-01T22:46:05.943Z,101078.38
2022-12-01T22:49:16.328Z,101076.50
2022-12-01T22:52:35.920Z,101078.72
2022-12-01T22:55:44.727Z,101076.81
2022-12-01T22:58:53.897Z,101090.22
2022-12-01T23:02:30.967Z,101088.41
2022-12-01T23:05:39.903Z,101082.09
2022-12-01T23:08:54.900Z,101065.41
2022-12-01T23:12:16.873Z,101076.63
2022-12-01T23:15:45.921Z,101083.69
2022-12-01T23:18:55.090Z,101086.16
2022-12-01T23:22:09.879Z,101084.47
2022-12-01T23:25:20.880Z,101087.69
2022-12-01T23:28:30.489Z,101081.75
2022-12-01T23:31:38.904Z,101079.69
2022-12-01T23:34:59.723Z,101085.59
2022-12-01T23:38:24.890Z,101085.00
2022-12-01T23:41:44.050Z,101080.28
2022-12-01T23:44:45.981Z,101081.94
2022-12-01T23:48:06.721Z,101088.22
2022-12-01T23:51:41.893Z,101092.94
2022-12-01T23:54:56.910Z,101080.81
2022-12-01T23:58:10.762Z,101100.28
